METAR stanice u blizini

 

LYBE - Beograd / Surčin, Srbija
Ažurirano: 22/01/2020 10:00
Partly Cloudy
Partly Cloudy
 Pravac vetra IJI
Vetar: IJI 9 km/h
Temperatura: 1°C
Osećaj hladnoće: -2°C
Tačka rose: -2°C
Vlažnost: 81%
Pritisak: 1034 hPa
Oblaci: Partly Cloudy
Vidljivost: 6 km
2020/01/22 09:00 LYBE 220900Z 12005KT 6000 NSC 01/M02 Q1034 NOSIG
LYBT - Beograd / Batajnica, Srbija
Ažurirano: 22/01/2020 10:00
Partly Cloudy
Partly Cloudy
 Pravac vetra I
Vetar: I 6 km/h
Temperatura: 1°C
Tačka rose: -1°C
Vlažnost: 87%
Pritisak: 1034 hPa
Oblaci: Partly Cloudy
Vidljivost: 6 km
2020/01/22 09:00 LYBT 220900Z 08003KT 010V140 6000 NSC 01/M01 Q1034 NOSIG
LYVR - Vršac, Srbija
Ažurirano: 22/01/2020 10:00
Mostly Cloudy
Mostly Cloudy
 Pravac vetra varies
Vetar: varies 4 km/h
Temperatura: 1°C
Tačka rose: -3°C
Vlažnost: 75%
Pritisak: 1035 hPa
Oblaci: Mostly Cloudy
Vidljivost: 10 km
Cloud details: Mostly Cloudy 518 m
2020/01/22 09:00 LYVR 220900Z VRB02KT 9999 BKN017 01/M03 Q1035 NOSIG
 
LYKV - Lađevci, Srbija
Ažurirano: 22/01/2020 10:00
Freezing fog, Oblačno
Freezing fog, Oblačno
 Pravac vetra calm
Vetar: Tišina
Temperatura: -6°C
Tačka rose: -6°C
Vlažnost: 100%
Pritisak: 1035 hPa
Pregled: Freezing Fog
Oblaci: Oblačno
Vidljivost: 0 km
Cloud details: Oblačno 61 m
2020/01/22 09:00 LYKV 220900Z 00000KT 0200 FZFG VV002 M06/M06 Q1035 BECMG 1000 BR BKN005
LYNI - Niš, Srbija
Ažurirano: 22/01/2020 10:00
Few Clouds
Few Clouds
 Pravac vetra J
Vetar: J 7 km/h
Temperatura: 0°C
Osećaj hladnoće: -3°C
Tačka rose: -5°C
Vlažnost: 69%
Pritisak: 1035 hPa
Oblaci: Few Clouds
Vidljivost: 9 km
Cloud details: Few Clouds 518 m
2020/01/22 09:00 LYNI 220900Z 18004KT 100V230 9000 FEW017 M00/M05 Q1035 NOSIG
BKPR - Priština, Srbija
Ažurirano: 22/01/2020 10:30
Freezing fog, Pretežno oblačno
Freezing fog, Pretežno oblačno
 Pravac vetra varies
Vetar: varies 2 km/h
Temperatura: -6°C
Tačka rose: -8°C
Vlažnost: 86%
Pritisak: 1034 hPa
Pregled: Freezing Fog
Oblaci: Mostly Cloudy
Vidljivost: 0 km
Cloud details: Mostly Cloudy 91 m
2020/01/22 09:30 BKPR 220930Z VRB01KT 0250 R17/0350V0600 FZFG BKN003 M06/M08 Q1034 TEMPO 0500 RMK 17010095
 
LHPP - Pecs / Pogany, Hungary
Ažurirano: 22/01/2020 09:45
Mist, Delimično oblačno
Mist, Delimično oblačno
 Pravac vetra I
Vetar: I 6 km/h
Temperatura: -2°C
Tačka rose: -2°C
Vlažnost: 100%
Pritisak: 1032 hPa
Pregled: Mist
Oblaci: Partly Cloudy
Vidljivost: 2 km
2020/01/22 08:45 LHPP 220845Z 08003KT 1500 BR NSC M02/M02 Q1032
LHUD - Szeged, Hungary
Ažurirano: 04/07/2019 01:45
NOT Current
Vedro
Vedro
 Pravac vetra S
Vetar: S 7 km/h
Temperatura: 18°C
Tačka rose: 13°C
Vlažnost: 73%
Pritisak: 1019 hPa
Pregled: Vedro
Vidljivost: greater than 10 km
2019/07/03 23:45 LHUD 032345Z 35004KT CAVOK 18/13 Q1019
LRTR - Timisoara, Romania
Ažurirano: 22/01/2020 10:00
Mist, Oblačno
Mist, Oblačno
 Pravac vetra JI
Vetar: JI 6 km/h
Temperatura: 0°C
Tačka rose: 0°C
Vlažnost: 100%
Pritisak: 1034 hPa
Pregled: Mist
Oblaci: Oblačno
Vidljivost: 4 km
Cloud details: Few Clouds 152 m
Oblačno 488 m
2020/01/22 09:00 LRTR 220900Z 13003KT 4000 BR FEW005 OVC016 M00/M00 Q1034
 
LRCV - Craiova, Romania
Ažurirano: 22/01/2020 10:00
Vedro
Vedro
 Pravac vetra ZJZ
Vetar: ZJZ 17 km/h
Temperatura: 1°C
Osećaj hladnoće: -3°C
Tačka rose: -2°C
Vlažnost: 81%
Pritisak: 1029 hPa
Pregled: Vedro
Vidljivost: greater than 10 km
2020/01/22 09:00 LRCV 220900Z 24009KT CAVOK 01/M02 Q1029
LBSF - Sofia, Bulgaria
Ažurirano: 22/01/2020 10:00
Partly Cloudy
Partly Cloudy
 Pravac vetra Z
Vetar: Z 7 km/h
Temperatura: -2°C
Osećaj hladnoće: -6°C
Tačka rose: -6°C
Vlažnost: 74%
Pritisak: 1032 hPa
Oblaci: Partly Cloudy
Vidljivost: 8 km
2020/01/22 09:00 LBSF 220900Z 28004KT 250V320 8000 NSC M02/M06 Q1032 NOSIG
LWSK - Skoplje, Makedonija
Ažurirano: 22/01/2020 10:30
Partly Cloudy
Partly Cloudy
 Pravac vetra calm
Vetar: Tišina
Temperatura: 0°C
Tačka rose: -4°C
Vlažnost: 75%
Pritisak: 1035 hPa
Oblaci: Partly Cloudy
Vidljivost: 8 km
2020/01/22 09:30 LWSK 220930Z 00000KT 8000 NSC M00/M04 Q1035 NOSIG
 
LYPG - Podgorica, Crna Gora
Ažurirano: 22/01/2020 10:00
Vedro
Vedro
 Pravac vetra calm
Vetar: Tišina
Temperatura: 5°C
Tačka rose: -2°C
Vlažnost: 61%
Pritisak: 1034 hPa
Pregled: Vedro
Vidljivost: greater than 10 km
2020/01/22 09:00 LYPG 220900Z 00000KT CAVOK 05/M02 Q1034 NOSIG
LQSA - Sarajevo, Bosna i Hercegovina
Ažurirano: 22/01/2020 10:00
Mist, Delimično oblačno
Mist, Delimično oblačno
 Pravac vetra varies
Vetar: varies 2 km/h
Temperatura: -7°C
Tačka rose: -7°C
Vlažnost: 100%
Pritisak: 1035 hPa
Pregled: Mist
Oblaci: Partly Cloudy
Vidljivost: 1 km
2020/01/22 09:00 LQSA 220900Z VRB01KT 1000 R11/0800D BR NSC M07/M07 Q1035 NOSIG
LDOS - Osijek, Hrvatksa
Ažurirano: 22/01/2020 10:00
Freezing fog, Oblačno
Freezing fog, Oblačno
 Pravac vetra ZJZ
Vetar: ZJZ 6 km/h
Temperatura: -3°C
Tačka rose: -4°C
Vlažnost: 93%
Pritisak: 1034 hPa
Pregled: Freezing Fog
Oblaci: Oblačno
Vidljivost: 0 km
Cloud details: Oblačno 61 m
2020/01/22 09:00 LDOS 220900Z 25003KT 220V330 0300 FZFG OVC002 M03/M04 Q1034